Time;durP1;ratioP1;P1;durP2;ratioP2;P2;SDS_P1;SDS_P2;PMS_P1;PMS_P2;Temp;Humidity;BMP_temperature;BMP_pressure;BME280_temperature;BME280_humidity;BME280_pressure;Samples;Min_cycle;Max_cycle;Signal;HPM_P1;HPM_P2
2022/06/05 00:01:41;;;;;;;4.68;4.18;;;15.80;99.90;;;;;;4698129;30;20065;-78
2022/06/05 00:04:43;;;;;;;5.05;4.55;;;15.90;99.90;;;;;;4687650;30;20609;-79
2022/06/05 00:07:34;;;;;;;6.82;4.13;;;15.80;99.90;;;;;;4695772;30;20054;-78
2022/06/05 00:10:02;;;;;;;11.10;5.75;;;15.80;99.90;;;;;;4696914;30;20053;-78
2022/06/05 00:12:45;;;;;;;4.80;4.40;;;16.00;99.90;;;;;;4697674;30;20065;-78
2022/06/05 00:15:13;;;;;;;4.63;4.22;;;16.00;99.90;;;;;;4695628;30;20437;-78
2022/06/05 00:17:41;;;;;;;4.25;3.72;;;16.00;99.90;;;;;;4697514;30;20061;-79
2022/06/05 00:20:10;;;;;;;4.70;4.30;;;16.10;99.90;;;;;;4698281;30;20065;-79
2022/06/05 00:22:39;;;;;;;11.93;4.70;;;16.00;99.90;;;;;;4696442;30;20545;-78
2022/06/05 00:25:09;;;;;;;6.13;4.20;;;15.90;99.90;;;;;;4697128;30;20522;-78
2022/06/05 00:27:56;;;;;;;4.22;3.83;;;15.80;99.90;;;;;;4697585;30;20080;-78
2022/06/05 00:30:53;;;;;;;6.00;4.30;;;15.70;99.90;;;;;;4697204;30;20049;-79
2022/06/05 00:33:32;;;;;;;7.13;6.53;;;15.70;99.90;;;;;;4697951;30;20049;-78
2022/06/05 00:36:16;;;;;;;5.90;4.43;;;15.80;99.90;;;;;;4698020;30;20057;-78
2022/06/05 00:38:48;;;;;;;7.30;4.38;;;15.80;99.90;;;;;;4696653;30;20049;-78
2022/06/05 00:41:19;;;;;;;5.38;4.88;;;15.70;99.90;;;;;;4696319;30;20422;-78
2022/06/05 00:43:50;;;;;;;4.00;3.60;;;15.70;99.90;;;;;;4697136;30;20525;-78
2022/06/05 00:46:18;;;;;;;3.92;3.58;;;15.60;99.90;;;;;;4697549;30;20067;-78
2022/06/05 00:48:46;;;;;;;4.68;4.00;;;15.50;99.90;;;;;;4696851;30;20076;-78
2022/06/05 00:51:14;;;;;;;4.97;4.50;;;15.40;99.90;;;;;;4697381;30;20054;-78
2022/06/05 00:53:42;;;;;;;5.68;5.18;;;15.40;99.90;;;;;;4697372;30;20049;-78
2022/06/05 00:56:12;;;;;;;5.45;4.85;;;15.40;99.90;;;;;;4696739;30;20057;-78
2022/06/05 00:58:41;;;;;;;6.07;5.50;;;15.30;99.90;;;;;;4696375;30;20074;-86
2022/06/05 01:01:09;;;;;;;6.53;4.45;;;15.40;99.90;;;;;;4695852;30;20073;-85
2022/06/05 01:03:37;;;;;;;5.88;5.28;;;15.40;99.90;;;;;;4682679;30;20060;-86
2022/06/05 01:06:05;;;;;;;9.05;6.30;;;15.50;99.90;;;;;;4696943;30;20213;-86
2022/06/05 01:08:33;;;;;;;6.63;5.18;;;15.50;99.90;;;;;;4681461;30;20061;-86
2022/06/05 01:11:20;;;;;;;6.18;5.68;;;15.40;99.90;;;;;;4694342;30;20053;-85
2022/06/05 01:14:19;;;;;;;6.63;6.03;;;15.40;99.90;;;;;;4696654;30;20427;-85
2022/06/05 01:17:02;;;;;;;8.15;6.40;;;15.50;99.90;;;;;;4697142;30;20060;-86
2022/06/05 01:19:41;;;;;;;9.82;6.05;;;15.50;99.90;;;;;;4698689;30;20065;-86
2022/06/05 01:22:22;;;;;;;6.13;5.55;;;15.50;99.90;;;;;;4698602;30;20066;-85
2022/06/05 01:24:53;;;;;;;;;;;15.60;99.90;;;;;;4698799;30;20068;-87
2022/06/05 01:27:31;;;;;;;10.95;5.15;;;15.70;99.90;;;;;;4698702;30;19927;-87
2022/06/05 01:30:11;;;;;;;7.25;5.25;;;15.70;99.90;;;;;;4698231;30;20046;-86
2022/06/05 01:32:53;;;;;;;5.60;5.10;;;15.80;99.90;;;;;;4698592;30;20064;-86
2022/06/05 01:35:40;;;;;;;6.32;5.65;;;15.90;99.90;;;;;;4697542;30;20057;-86
2022/06/05 01:38:21;;;;;;;5.70;5.20;;;16.00;99.90;;;;;;4696964;30;20049;-86
2022/06/05 01:40:54;;;;;;;6.38;5.13;;;16.00;99.90;;;;;;4697898;30;20054;-86
2022/06/05 01:43:27;;;;;;;6.13;5.60;;;15.90;99.90;;;;;;4698479;30;20061;-86
2022/06/05 01:46:01;;;;;;;7.00;6.35;;;15.80;99.90;;;;;;4698327;30;20072;-86
2022/06/05 01:48:58;;;;;;;6.82;6.07;;;15.80;99.90;;;;;;4697209;30;20067;-86
2022/06/05 01:51:34;;;;;;;11.07;7.40;;;15.70;99.90;;;;;;4683388;30;20065;-86
2022/06/05 01:54:13;;;;;;;12.73;7.35;;;15.70;99.90;;;;;;4682148;30;20058;-86
2022/06/05 01:56:48;;;;;;;10.63;5.75;;;15.70;99.90;;;;;;4696279;30;20050;-86
2022/06/05 01:59:24;;;;;;;7.72;6.50;;;15.70;99.90;;;;;;4697011;30;20057;-86
2022/06/05 02:01:57;;;;;;;9.18;6.53;;;15.60;99.90;;;;;;4696590;30;20699;-86
2022/06/05 02:04:34;;;;;;;8.80;7.20;;;15.60;99.90;;;;;;4698269;30;20065;-86
2022/06/05 02:07:20;;;;;;;11.25;6.90;;;15.60;99.90;;;;;;4697369;30;20065;-86
2022/06/05 02:10:05;;;;;;;6.43;5.82;;;15.60;99.90;;;;;;4681558;30;20053;-85
2022/06/05 02:12:34;;;;;;;8.15;5.57;;;15.60;99.90;;;;;;4682119;30;20061;-86
2022/06/05 02:15:03;;;;;;;8.90;5.80;;;15.60;99.90;;;;;;4681955;30;20053;-87
2022/06/05 02:17:31;;;;;;;8.60;5.57;;;15.70;99.90;;;;;;4697800;30;20061;-86
2022/06/05 02:20:00;;;;;;;10.05;6.72;;;15.70;99.90;;;;;;4682061;30;20065;-86
2022/06/05 02:22:45;;;;;;;7.60;6.15;;;15.70;99.90;;;;;;4667840;30;20095;-86
2022/06/05 02:25:15;;;;;;;6.30;5.65;;;15.70;99.90;;;;;;4681316;30;20056;-86
2022/06/05 02:27:43;;;;;;;7.53;6.80;;;15.80;99.90;;;;;;4697638;30;20082;-86
2022/06/05 02:30:14;;;;;;;7.53;6.82;;;15.80;99.90;;;;;;4697321;30;20053;-87
2022/06/05 02:32:45;;;;;;;7.95;5.30;;;15.90;99.90;;;;;;4681879;30;20054;-86
2022/06/05 02:35:34;;;;;;;7.10;5.65;;;15.90;99.90;;;;;;4681979;30;20084;-87
2022/06/05 02:38:19;;;;;;;7.85;6.47;;;16.00;99.90;;;;;;4696929;30;20077;-87
2022/06/05 02:41:21;;;;;;;11.40;5.65;;;16.00;99.90;;;;;;4666914;30;20089;-86
2022/06/05 02:47:21;;;;;;;6.35;5.75;;;16.00;99.90;;;;;;4697332;30;20061;-85
2022/06/05 02:50:01;;;;;;;7.25;6.57;;;16.10;99.90;;;;;;4696449;30;20049;-86
2022/06/05 02:52:31;;;;;;;7.10;6.35;;;16.00;99.90;;;;;;4697543;30;20410;-86
2022/06/05 02:55:03;;;;;;;7.72;6.78;;;16.00;99.90;;;;;;4695751;30;20444;-86
2022/06/05 02:57:32;;;;;;;6.85;6.25;;;15.90;99.90;;;;;;4696870;30;20049;-86
2022/06/05 03:00:01;;;;;;;7.63;6.60;;;15.90;99.90;;;;;;4696377;30;20415;-83
2022/06/05 03:05:15;;;;;;;6.28;5.63;;;15.70;99.90;;;;;;4696296;30;20050;-83
2022/06/05 03:07:43;;;;;;;7.53;6.80;;;15.60;99.90;;;;;;4687610;30;20075;-82
2022/06/05 03:10:11;;;;;;;7.15;6.25;;;15.60;99.90;;;;;;4701203;30;20064;-83
2022/06/05 03:12:39;;;;;;;7.65;6.60;;;15.50;99.90;;;;;;4687086;30;20053;-83
2022/06/05 03:15:08;;;;;;;6.55;5.53;;;15.60;99.90;;;;;;4687799;30;20065;-84
2022/06/05 03:17:36;;;;;;;9.27;5.55;;;15.60;99.90;;;;;;4686977;30;20056;-85
2022/06/05 03:20:05;;;;;;;15.77;7.20;;;15.70;99.90;;;;;;4703055;30;20065;-83
2022/06/05 03:22:33;;;;;;;6.45;5.85;;;15.70;99.90;;;;;;4687232;30;20049;-83
2022/06/05 03:25:01;;;;;;;8.45;6.50;;;15.70;99.90;;;;;;4672951;30;20414;-83
2022/06/05 03:27:30;;;;;;;12.27;6.75;;;15.70;99.90;;;;;;4687190;30;20053;-82
2022/06/05 03:29:59;;;;;;;9.40;6.15;;;15.60;99.90;;;;;;4687097;30;20419;-83
2022/06/05 03:32:27;;;;;;;13.35;6.60;;;15.70;99.90;;;;;;4701704;30;20057;-83
2022/06/05 03:34:56;;;;;;;7.43;6.15;;;15.60;99.90;;;;;;4701204;30;20151;-84
2022/06/05 03:37:24;;;;;;;6.10;5.50;;;15.60;99.90;;;;;;4701260;30;20054;-83
2022/06/05 03:39:52;;;;;;;7.15;4.95;;;15.70;99.90;;;;;;4701088;30;20061;-82
2022/06/05 03:42:20;;;;;;;6.38;5.75;;;15.70;99.90;;;;;;4700837;30;20569;-84
2022/06/05 03:44:48;;;;;;;7.65;5.15;;;15.80;99.90;;;;;;4701282;30;20057;-83
2022/06/05 03:47:16;;;;;;;5.40;4.75;;;15.80;99.90;;;;;;4702852;30;20054;-82
2022/06/05 03:49:44;;;;;;;19.92;8.20;;;15.80;99.90;;;;;;4702080;30;20072;-83
2022/06/05 03:52:12;;;;;;;6.20;4.93;;;15.90;99.90;;;;;;4673051;30;20414;-83
2022/06/05 03:54:40;;;;;;;8.30;5.78;;;15.80;99.90;;;;;;4686540;30;20060;-78
2022/06/05 03:57:08;;;;;;;8.07;5.10;;;15.90;99.90;;;;;;4701580;30;20057;-77
2022/06/05 03:59:36;;;;;;;7.68;5.35;;;15.90;99.90;;;;;;4702304;30;20414;-77
2022/06/05 04:02:05;;;;;;;6.30;4.97;;;15.90;99.90;;;;;;4701871;30;20069;-78
2022/06/05 04:04:33;;;;;;;7.00;5.47;;;15.90;99.90;;;;;;4702710;30;20057;-77
2022/06/05 04:07:01;;;;;;;5.95;5.38;;;15.90;99.90;;;;;;4701766;30;20061;-77
2022/06/05 04:09:29;;;;;;;5.00;4.60;;;15.90;99.90;;;;;;4702060;30;20060;-77
2022/06/05 04:11:57;;;;;;;6.75;5.28;;;15.90;99.90;;;;;;4701854;30;20075;-77
2022/06/05 04:14:25;;;;;;;7.85;5.95;;;15.90;99.90;;;;;;4702123;30;20049;-77
2022/06/05 04:16:53;;;;;;;8.43;6.38;;;16.00;99.90;;;;;;4700951;30;20054;-77
2022/06/05 04:19:21;;;;;;;8.43;5.43;;;16.00;99.90;;;;;;4698916;30;20050;-77
2022/06/05 04:21:49;;;;;;;5.45;4.95;;;16.00;99.90;;;;;;4699012;30;20419;-77
2022/06/05 04:24:17;;;;;;;19.45;6.50;;;16.10;99.90;;;;;;4699864;30;20049;-77
2022/06/05 04:26:45;;;;;;;8.77;6.18;;;16.10;99.90;;;;;;4698960;30;20053;-79
2022/06/05 04:29:13;;;;;;;5.53;4.60;;;16.10;99.90;;;;;;4699011;30;20060;-80
2022/06/05 04:31:46;;;;;;;6.30;5.60;;;16.10;99.90;;;;;;4699749;30;20061;-79
2022/06/05 04:34:18;;;;;;;8.93;5.80;;;16.10;99.90;;;;;;4698955;30;20064;-79
2022/06/05 04:36:47;;;;;;;6.57;5.13;;;16.10;99.90;;;;;;4698718;30;20049;-79
2022/06/05 04:39:15;;;;;;;16.23;8.57;;;16.20;99.90;;;;;;4699140;30;20049;-79
2022/06/05 04:41:43;;;;;;;7.55;6.30;;;16.20;99.90;;;;;;4698159;30;20061;-79
2022/06/05 04:44:14;;;;;;;5.40;5.00;;;16.10;99.90;;;;;;4698570;30;20054;-79
2022/06/05 04:46:43;;;;;;;6.80;5.75;;;16.10;99.90;;;;;;4698693;30;20600;-79
2022/06/05 04:49:13;;;;;;;11.00;6.25;;;16.10;99.90;;;;;;4698420;30;20057;-79
2022/06/05 04:51:42;;;;;;;6.23;5.70;;;16.20;99.90;;;;;;4698958;30;20053;-78
2022/06/05 04:54:12;;;;;;;6.80;6.00;;;16.30;99.90;;;;;;4698791;30;20050;-78
2022/06/05 04:56:40;;;;;;;7.30;5.72;;;16.40;99.90;;;;;;4698240;30;20403;-79
2022/06/05 04:59:10;;;;;;;6.50;5.88;;;16.60;99.90;;;;;;4698725;30;20065;-79
2022/06/05 05:01:39;;;;;;;6.55;5.90;;;16.70;99.90;;;;;;4698665;30;20058;-79
2022/06/05 05:04:11;;;;;;;7.30;6.22;;;16.90;99.90;;;;;;4699357;30;20062;-80
2022/06/05 05:06:41;;;;;;;7.38;6.55;;;16.90;99.90;;;;;;4698546;30;20053;-79
2022/06/05 05:09:09;;;;;;;11.80;5.28;;;16.90;99.90;;;;;;4698953;30;20638;-81
2022/06/05 05:11:37;;;;;;;5.22;4.82;;;16.80;99.90;;;;;;4682044;30;20065;-81
2022/06/05 05:14:08;;;;;;;6.15;5.57;;;16.70;99.90;;;;;;4698372;30;20050;-81
2022/06/05 05:16:36;;;;;;;5.57;5.07;;;16.70;99.90;;;;;;4682631;30;20511;-80
2022/06/05 05:19:08;;;;;;;4.85;4.43;;;16.80;99.90;;;;;;4698747;30;20400;-81
2022/06/05 05:21:36;;;;;;;9.50;5.05;;;17.00;99.90;;;;;;4698068;30;20049;-80
2022/06/05 05:24:05;;;;;;;5.88;5.32;;;17.10;99.90;;;;;;4698368;30;20092;-80
2022/06/05 05:26:34;;;;;;;5.22;4.78;;;17.20;99.90;;;;;;4697119;30;20066;-81
2022/06/05 05:29:04;;;;;;;5.30;4.35;;;17.30;99.90;;;;;;4697713;30;20060;-80
2022/06/05 05:31:41;;;;;;;16.77;6.22;;;17.40;99.90;;;;;;4698290;30;20570;-81
2022/06/05 05:34:10;;;;;;;6.93;6.32;;;17.40;99.90;;;;;;4696613;30;20060;-81
2022/06/05 05:36:38;;;;;;;8.88;6.05;;;17.50;99.90;;;;;;4697525;30;20069;-79
2022/06/05 05:42:05;;;;;;;5.95;5.28;;;17.80;99.90;;;;;;4696036;30;20058;-81
2022/06/05 05:44:45;;;;;;;5.32;4.55;;;17.90;99.90;;;;;;4698222;30;20496;-80
2022/06/05 05:47:19;;;;;;;5.00;3.65;;;18.00;99.90;;;;;;4695362;30;20403;-81
2022/06/05 05:49:52;;;;;;;5.47;4.93;;;18.10;99.90;;;;;;4697350;30;20061;-82
2022/06/05 05:52:20;;;;;;;5.88;4.78;;;18.20;99.90;;;;;;4698031;30;20057;-81
2022/06/05 05:54:49;;;;;;;6.05;5.22;;;18.10;99.90;;;;;;4697523;30;20056;-79
2022/06/05 05:57:17;;;;;;;6.63;5.15;;;18.10;99.90;;;;;;4697177;30;20045;-81
2022/06/05 05:59:46;;;;;;;5.75;4.30;;;18.20;99.90;;;;;;4697521;30;20057;-83
2022/06/05 06:02:21;;;;;;;;;;;18.40;99.90;;;;;;4696710;30;20057;-81
2022/06/05 06:04:51;;;;;;;6.32;5.70;;;18.50;99.90;;;;;;4697650;30;19931;-82
2022/06/05 06:07:20;;;;;;;6.00;5.25;;;18.60;99.90;;;;;;4698065;30;20058;-81
2022/06/05 06:09:48;;;;;;;5.22;4.60;;;18.70;99.90;;;;;;4696635;30;20065;-82
2022/06/05 06:12:24;;;;;;;8.88;5.22;;;18.80;99.90;;;;;;4697535;30;20626;-81
2022/06/05 06:14:52;;;;;;;4.13;3.72;;;18.90;99.90;;;;;;4681988;30;20075;-82
2022/06/05 06:17:20;;;;;;;6.55;4.38;;;18.90;99.90;;;;;;4697299;30;20415;-82
2022/06/05 06:19:49;;;;;;;5.57;4.30;;;19.00;99.90;;;;;;4697672;30;20798;-80
2022/06/05 06:22:17;;;;;;;16.85;7.88;;;19.10;99.90;;;;;;4681614;30;20057;-83
2022/06/05 06:24:46;;;;;;;4.72;4.25;;;19.00;99.90;;;;;;4681637;30;20065;-82
2022/06/05 06:27:14;;;;;;;5.60;4.72;;;19.00;99.90;;;;;;4667703;30;20279;-87
2022/06/05 06:29:42;;;;;;;5.40;4.90;;;19.10;99.90;;;;;;4681732;30;20046;-78
2022/06/05 06:32:10;;;;;;;8.23;4.20;;;18.90;99.90;;;;;;4697543;30;20050;-81
2022/06/05 06:34:38;;;;;;;5.95;4.68;;;18.70;99.90;;;;;;4681581;30;20068;-82
2022/06/05 06:37:05;;;;;;;5.32;4.82;;;18.70;99.90;;;;;;4674605;30;20049;-79
2022/06/05 06:39:33;;;;;;;7.30;4.50;;;18.60;99.90;;;;;;4696944;30;20056;-79
2022/06/05 06:42:02;;;;;;;5.10;4.10;;;18.60;99.90;;;;;;4694524;30;20063;-78
2022/06/05 06:44:30;;;;;;;4.40;4.10;;;18.70;99.90;;;;;;4696223;30;20068;-80
2022/06/05 06:46:57;;;;;;;5.18;4.10;;;18.70;99.90;;;;;;4696831;30;20060;-79
2022/06/05 06:49:25;;;;;;;4.53;4.13;;;18.90;99.90;;;;;;4696550;30;20063;-79
2022/06/05 06:51:53;;;;;;;5.57;4.13;;;19.20;99.90;;;;;;4681531;30;20060;-80
2022/06/05 06:54:21;;;;;;;5.28;4.78;;;19.40;99.90;;;;;;4681547;30;20046;-80
2022/06/05 06:56:50;;;;;;;4.72;4.32;;;19.60;99.90;;;;;;4680143;30;20062;-79
2022/06/05 06:59:20;;;;;;;6.72;4.35;;;19.70;99.90;;;;;;4681403;30;20093;-79
2022/06/05 07:01:48;;;;;;;7.53;4.93;;;19.70;99.90;;;;;;4695849;30;20042;-79
2022/06/05 07:04:17;;;;;;;8.50;4.35;;;19.80;99.90;;;;;;4701221;30;20058;-79
2022/06/05 07:06:45;;;;;;;4.68;4.20;;;19.80;99.90;;;;;;4696613;30;20079;-79
2022/06/05 07:09:14;;;;;;;5.43;3.30;;;19.80;99.90;;;;;;4681071;30;20038;-79
2022/06/05 07:11:42;;;;;;;5.53;4.60;;;19.80;99.90;;;;;;4696153;30;20058;-80
2022/06/05 07:14:10;;;;;;;5.75;3.28;;;19.80;99.90;;;;;;4696624;30;20430;-80
2022/06/05 07:16:38;;;;;;;5.30;4.90;;;19.80;99.90;;;;;;4696438;30;20064;-80
2022/06/05 07:19:06;;;;;;;4.35;3.95;;;19.70;99.90;;;;;;4681589;30;20054;-83
2022/06/05 07:21:35;;;;;;;4.80;3.80;;;19.70;99.90;;;;;;4695540;30;20062;-82
2022/06/05 07:24:03;;;;;;;4.13;3.47;;;19.60;99.90;;;;;;4696125;30;20064;-82
2022/06/05 07:26:33;;;;;;;4.88;4.47;;;19.50;99.90;;;;;;4694905;30;20060;-83
2022/06/05 07:29:04;;;;;;;5.45;4.95;;;19.40;99.90;;;;;;4680692;30;20053;-82
2022/06/05 07:31:40;;;;;;;5.22;4.75;;;19.40;99.90;;;;;;4696228;30;20076;-83
2022/06/05 07:34:10;;;;;;;5.40;4.88;;;19.40;99.90;;;;;;4679055;30;20063;-83
2022/06/05 07:36:38;;;;;;;5.78;5.28;;;19.50;99.90;;;;;;4695471;30;20394;-83
2022/06/05 07:39:06;;;;;;;5.00;4.57;;;19.50;99.90;;;;;;4681632;30;20054;-84
2022/06/05 07:41:36;;;;;;;5.25;4.85;;;19.60;99.90;;;;;;4680329;30;20636;-82
2022/06/05 07:44:06;;;;;;;4.78;4.22;;;19.70;99.90;;;;;;4696015;30;20069;-84
2022/06/05 07:46:37;;;;;;;5.65;4.00;;;19.80;99.90;;;;;;4695372;30;20061;-82
2022/06/05 07:49:06;;;;;;;4.50;4.10;;;20.00;99.90;;;;;;4681058;30;20395;-82
2022/06/05 07:54:34;;;;;;;6.88;5.28;;;20.50;99.90;;;;;;4684046;30;20088;-82
2022/06/05 07:57:05;;;;;;;4.88;4.35;;;20.70;99.90;;;;;;4670284;30;20061;-82
2022/06/05 07:59:37;;;;;;;5.97;4.63;;;20.90;99.90;;;;;;4700176;30;20073;-83
2022/06/05 08:02:09;;;;;;;6.82;5.13;;;20.70;99.90;;;;;;4684337;30;20057;-83
2022/06/05 08:04:38;;;;;;;11.93;5.35;;;20.60;99.90;;;;;;4687623;30;20077;-83
2022/06/05 08:07:08;;;;;;;5.32;4.72;;;20.60;99.90;;;;;;4681675;30;20076;-82
2022/06/05 08:09:38;;;;;;;4.30;3.90;;;20.60;99.90;;;;;;4680918;30;20419;-83
2022/06/05 08:12:08;;;;;;;5.53;5.13;;;20.70;99.90;;;;;;4680775;30;20065;-82
2022/06/05 08:14:37;;;;;;;4.28;3.88;;;20.70;99.90;;;;;;4666958;30;20057;-83
2022/06/05 08:17:08;;;;;;;5.60;4.53;;;20.80;99.90;;;;;;4680817;30;20068;-83
2022/06/05 08:19:39;;;;;;;5.90;4.85;;;21.20;99.90;;;;;;4681495;30;20061;-82
2022/06/05 08:22:09;;;;;;;5.45;4.05;;;21.50;99.90;;;;;;4680650;30;20396;-83
2022/06/05 08:24:39;;;;;;;3.92;3.47;;;21.60;99.90;;;;;;4680868;30;20075;-82
2022/06/05 08:27:15;;;;;;;3.97;3.67;;;21.70;99.90;;;;;;4666801;30;20518;-88
2022/06/05 08:29:44;;;;;;;5.10;4.30;;;21.80;99.90;;;;;;4681728;30;20504;-85
2022/06/05 08:32:14;;;;;;;12.55;4.25;;;21.80;99.90;;;;;;4681841;30;20050;-87
2022/06/05 08:34:43;;;;;;;4.78;4.18;;;21.80;99.90;;;;;;4682234;30;20050;-88
2022/06/05 08:43:32;;;;;;;4.30;3.90;;;21.80;99.90;;;;;;4681183;30;20054;-87
2022/06/05 08:46:13;;;;;;;3.40;3.15;;;21.80;99.90;;;;;;4682409;30;20054;-89
2022/06/05 08:48:49;;;;;;;4.70;4.22;;;21.90;99.90;;;;;;4682599;30;20057;-87
2022/06/05 08:51:52;;;;;;;3.63;3.33;;;22.00;99.90;;;;;;4682036;30;20061;-89
2022/06/05 08:54:23;;;;;;;4.75;4.03;;;21.80;99.90;;;;;;4680389;30;20046;-87
2022/06/05 08:57:01;;;;;;;5.82;3.85;;;21.50;99.90;;;;;;4665819;30;20073;-87
2022/06/05 08:59:41;;;;;;;4.13;3.80;;;21.40;99.90;;;;;;4682692;30;20068;-86
2022/06/05 09:02:15;;;;;;;4.80;4.38;;;21.40;99.90;;;;;;4680607;30;20416;-86
2022/06/05 09:05:00;;;;;;;5.20;4.72;;;21.60;99.90;;;;;;4691377;30;20522;-87
2022/06/05 09:07:36;;;;;;;6.90;5.28;;;21.80;99.90;;;;;;4684210;30;20060;-88
2022/06/05 09:10:32;;;;;;;24.58;6.00;;;21.90;99.90;;;;;;4697645;30;20057;-85
2022/06/05 09:13:11;;;;;;;6.28;5.72;;;21.90;99.90;;;;;;4697171;30;20131;-84
2022/06/05 09:15:42;;;;;;;8.70;6.22;;;21.90;99.90;;;;;;4699248;30;20509;-85
2022/06/05 09:18:16;;;;;;;;;;;22.00;99.90;;;;;;4697645;30;20066;-86
2022/06/05 09:20:56;;;;;;;5.90;5.40;;;22.00;99.90;;;;;;4697241;30;19931;-85
2022/06/05 09:23:24;;;;;;;7.25;6.70;;;21.90;99.90;;;;;;4697580;30;20068;-82
2022/06/05 09:26:04;;;;;;;7.47;5.72;;;22.00;99.90;;;;;;4697846;30;20076;-81
2022/06/05 09:28:38;;;;;;;7.13;5.78;;;21.90;99.90;;;;;;4697653;30;20414;-90
2022/06/05 09:31:18;;;;;;;8.45;6.40;;;21.90;99.90;;;;;;4697962;30;20057;-86
2022/06/05 09:33:47;;;;;;;7.45;6.75;;;21.80;99.90;;;;;;4682999;30;20053;-86
2022/06/05 09:36:18;;;;;;;12.20;7.13;;;21.50;99.90;;;;;;4683016;30;20415;-85
2022/06/05 09:39:05;;;;;;;8.43;7.60;;;21.30;99.90;;;;;;4697042;30;20054;-90
2022/06/05 09:41:47;;;;;;;9.98;8.95;;;21.20;99.90;;;;;;4697769;30;20445;-84
2022/06/05 09:44:34;;;;;;;8.23;7.40;;;21.20;99.90;;;;;;4683590;30;20069;-88
2022/06/05 09:47:08;;;;;;;7.40;6.50;;;21.20;99.90;;;;;;4682807;30;20430;-86
2022/06/05 09:49:48;;;;;;;6.68;5.60;;;21.30;99.90;;;;;;4696793;30;20270;-88
2022/06/05 09:52:19;;;;;;;7.57;6.88;;;21.20;99.90;;;;;;4697351;30;20495;-87
2022/06/05 09:55:06;;;;;;;8.50;6.75;;;21.20;99.90;;;;;;4682192;30;20064;-86
2022/06/05 10:00:49;;;;;;;8.68;7.82;;;21.10;99.90;;;;;;4697823;30;20062;-88
2022/06/05 10:03:44;;;;;;;8.70;7.90;;;20.80;99.90;;;;;;4697226;30;20058;-87
2022/06/05 10:06:21;;;;;;;9.88;8.93;;;20.60;99.90;;;;;;4697280;30;20541;-88
2022/06/05 10:09:10;;;;;;;11.70;9.20;;;20.60;99.90;;;;;;4682520;30;20065;-87
2022/06/05 10:11:53;;;;;;;10.32;9.32;;;20.60;99.90;;;;;;4682084;30;20069;-86
2022/06/05 10:14:59;;;;;;;9.50;7.78;;;20.50;99.90;;;;;;4682828;30;20050;-88
2022/06/05 10:17:30;;;;;;;9.80;8.85;;;20.40;99.90;;;;;;4682186;30;20045;-86
2022/06/05 10:20:07;;;;;;;10.43;8.98;;;20.40;99.90;;;;;;4682486;30;20530;-87
2022/06/05 10:22:51;;;;;;;14.18;8.93;;;20.30;99.90;;;;;;4697885;30;20056;-87
2022/06/05 10:25:57;;;;;;;11.13;10.07;;;20.30;99.90;;;;;;4682456;30;20045;-86
2022/06/05 10:28:28;;;;;;;9.95;8.95;;;20.30;99.90;;;;;;4672457;30;20495;-85
2022/06/05 10:31:03;;;;;;;16.27;10.18;;;20.20;99.90;;;;;;4697621;30;20057;-84
2022/06/05 10:33:48;;;;;;;11.50;8.82;;;20.20;99.90;;;;;;4681512;30;20054;-87
2022/06/05 10:36:23;;;;;;;10.07;8.93;;;20.10;99.90;;;;;;4697561;30;20049;-86
2022/06/05 10:39:14;;;;;;;9.88;8.88;;;20.20;99.90;;;;;;4696346;30;20054;-88
2022/06/05 10:42:15;;;;;;;9.45;8.57;;;20.20;99.90;;;;;;4695130;30;20057;-86
2022/06/05 10:45:04;;;;;;;9.50;8.60;;;20.20;99.90;;;;;;4695813;30;20057;-86
2022/06/05 10:47:44;;;;;;;10.68;9.05;;;20.40;99.90;;;;;;4667771;30;20064;-87
2022/06/05 10:50:19;;;;;;;12.05;9.95;;;20.50;99.90;;;;;;4695955;30;20068;-86
2022/06/05 10:53:12;;;;;;;11.80;8.32;;;20.60;99.90;;;;;;4681713;30;20061;-86
2022/06/05 10:56:24;;;;;;;10.35;9.23;;;20.70;99.90;;;;;;4696111;30;20058;-86
2022/06/05 10:59:18;;;;;;;12.93;10.75;;;20.80;99.90;;;;;;4673438;30;20050;-87
2022/06/05 11:02:12;;;;;;;10.20;8.75;;;20.80;99.90;;;;;;4680954;30;20068;-85
2022/06/05 11:05:07;;;;;;;11.52;8.98;;;20.90;99.90;;;;;;4695435;30;20061;-87
2022/06/05 11:07:47;;;;;;;9.07;8.18;;;21.00;99.90;;;;;;4695842;30;20058;-86
2022/06/05 11:13:43;;;;;;;9.20;8.40;;;21.20;99.90;;;;;;4696534;30;20053;-88
2022/06/05 11:16:24;;;;;;;8.88;7.75;;;21.30;99.90;;;;;;4696156;30;20057;-88
2022/06/05 11:18:57;;;;;;;9.77;7.88;;;21.30;99.90;;;;;;4696714;30;20042;-86
2022/06/05 11:21:27;;;;;;;10.75;9.23;;;21.40;99.90;;;;;;4681407;30;20060;-88
2022/06/05 11:23:58;;;;;;;10.68;8.32;;;21.60;99.90;;;;;;4681818;30;20057;-86
2022/06/05 11:26:35;;;;;;;;;;;21.70;99.90;;;;;;4697255;30;20054;-85
2022/06/05 11:29:11;;;;;;;9.48;8.57;;;21.80;99.90;;;;;;4682869;30;19950;-85
2022/06/05 11:32:05;;;;;;;8.25;7.45;;;22.00;99.90;;;;;;4683609;30;20077;-85
2022/06/05 11:34:58;;;;;;;9.13;7.75;;;21.90;99.90;;;;;;4667620;30;20053;-86
2022/06/05 11:37:55;;;;;;;8.07;7.03;;;21.80;99.90;;;;;;4683121;30;20392;-87
2022/06/05 11:40:47;;;;;;;8.43;7.63;;;21.80;99.90;;;;;;4667166;30;20058;-84
2022/06/05 11:43:28;;;;;;;15.18;8.43;;;21.70;99.90;;;;;;4680078;30;20419;-82
2022/06/05 11:46:23;;;;;;;9.60;8.30;;;21.70;99.90;;;;;;4682699;30;20046;-83
2022/06/05 11:49:17;;;;;;;7.53;6.82;;;21.80;99.90;;;;;;4681288;30;20058;-83
2022/06/05 11:51:54;;;;;;;9.75;8.48;;;21.90;99.90;;;;;;4667461;30;20518;-82
2022/06/05 11:54:31;;;;;;;10.07;8.30;;;22.00;99.90;;;;;;4667242;30;20062;-83
2022/06/05 11:57:09;;;;;;;10.75;8.52;;;22.00;99.90;;;;;;4666269;30;20507;-83
2022/06/05 12:00:15;;;;;;;9.88;8.90;;;22.10;99.90;;;;;;4687956;30;20084;-81
2022/06/05 12:02:59;;;;;;;8.35;7.43;;;22.20;99.90;;;;;;4629021;30;20078;-79
2022/06/05 12:05:50;;;;;;;9.25;7.90;;;22.30;99.90;;;;;;4644928;30;20046;-83
2022/06/05 12:08:36;;;;;;;7.78;7.10;;;22.40;99.90;;;;;;4671870;30;20069;-82
2022/06/05 12:11:17;;;;;;;7.75;6.95;;;22.50;99.90;;;;;;4683223;30;20049;-83
2022/06/05 12:14:01;;;;;;;8.23;7.45;;;22.50;99.90;;;;;;4681028;30;20072;-80
2022/06/05 12:17:10;;;;;;;9.93;7.93;;;22.50;99.90;;;;;;4681781;30;20550;-81
2022/06/05 12:19:49;;;;;;;7.82;7.03;;;22.40;99.90;;;;;;4680091;30;20062;-82
2022/06/05 12:22:41;;;;;;;8.27;7.50;;;22.40;99.90;;;;;;4680742;30;20576;-82
2022/06/05 12:25:24;;;;;;;7.97;7.05;;;22.40;99.90;;;;;;4681700;30;20419;-82
2022/06/05 12:28:03;;;;;;;7.95;6.95;;;22.30;99.90;;;;;;4666633;30;20538;-83
2022/06/05 12:30:31;;;;;;;7.88;7.13;;;22.30;99.90;;;;;;4680758;30;20050;-81
2022/06/05 12:33:19;;;;;;;7.40;6.60;;;22.30;99.90;;;;;;4682181;30;20502;-81
2022/06/05 12:35:52;;;;;;;9.27;8.35;;;22.30;99.90;;;;;;4682520;30;20065;-83
2022/06/05 12:38:53;;;;;;;7.72;7.03;;;22.30;99.90;;;;;;4665235;30;20526;-83
2022/06/05 12:41:23;;;;;;;14.68;7.65;;;22.40;99.90;;;;;;4652753;30;20053;-83
2022/06/05 12:44:16;;;;;;;12.07;7.82;;;22.40;99.90;;;;;;4680679;30;20061;-83
2022/06/05 12:47:16;;;;;;;9.30;7.70;;;22.40;99.90;;;;;;4681862;30;20519;-82
2022/06/05 12:49:50;;;;;;;8.27;7.50;;;22.50;99.90;;;;;;4681538;30;20065;-83
2022/06/05 12:52:27;;;;;;;12.75;10.02;;;22.40;99.90;;;;;;4682212;30;20057;-84
2022/06/05 12:54:59;;;;;;;8.45;7.65;;;22.40;99.90;;;;;;4681400;30;20069;-83
2022/06/05 12:57:45;;;;;;;8.35;7.57;;;22.50;99.90;;;;;;4681477;30;20419;-83
2022/06/05 13:00:44;;;;;;;9.77;8.68;;;22.60;99.90;;;;;;4666597;30;20054;-82
2022/06/05 13:03:15;;;;;;;10.13;9.13;;;22.60;99.90;;;;;;4641729;30;20058;-83
2022/06/05 13:06:03;;;;;;;10.05;7.88;;;22.50;99.90;;;;;;4665992;30;20091;-82
2022/06/05 13:09:01;;;;;;;8.82;8.02;;;22.60;99.90;;;;;;4666083;30;20058;-83
2022/06/05 13:11:39;;;;;;;11.77;9.40;;;22.70;99.90;;;;;;4679407;30;20058;-82
2022/06/05 13:14:39;;;;;;;8.93;7.95;;;22.80;99.90;;;;;;4698125;30;20061;-83
2022/06/05 13:17:10;;;;;;;13.13;8.85;;;22.80;99.90;;;;;;4698039;30;20066;-84
2022/06/05 13:20:02;;;;;;;8.45;7.68;;;22.70;99.90;;;;;;4668757;30;20812;-82
2022/06/05 13:22:54;;;;;;;8.00;7.28;;;22.70;99.90;;;;;;4682631;30;20058;-82
2022/06/05 13:25:32;;;;;;;6.65;6.05;;;22.70;99.90;;;;;;4697625;30;20054;-81
2022/06/05 13:28:13;;;;;;;6.57;6.00;;;22.70;99.90;;;;;;4698250;30;20398;-82
2022/06/05 13:31:06;;;;;;;8.95;8.00;;;22.60;99.90;;;;;;4697092;30;20060;-81
2022/06/05 13:33:53;;;;;;;11.57;9.80;;;22.50;99.90;;;;;;4697921;30;20054;-81
2022/06/05 13:36:43;;;;;;;9.55;7.65;;;22.40;99.90;;;;;;4684679;30;20538;-83
2022/06/05 13:39:14;;;;;;;9.50;7.10;;;22.20;99.90;;;;;;4695537;30;20830;-83
2022/06/05 13:42:02;;;;;;;9.90;7.40;;;22.10;99.90;;;;;;4681870;30;20050;-83
2022/06/05 13:44:33;;;;;;;7.40;6.60;;;22.00;99.90;;;;;;4682928;30;20415;-82
2022/06/05 13:47:08;;;;;;;8.23;7.43;;;21.90;99.90;;;;;;4697683;30;20061;-82
2022/06/05 13:49:39;;;;;;;9.93;7.90;;;21.80;99.90;;;;;;4697777;30;20057;-82
2022/06/05 13:52:09;;;;;;;14.05;7.45;;;21.80;99.90;;;;;;4682729;30;20065;-83
2022/06/05 13:54:54;;;;;;;7.85;7.15;;;21.80;99.90;;;;;;4697652;30;20050;-83